Skip Navigation Links Skip Navigation Links

Current Weather

Frederick Muni, Frederick, Md.

For information only: do not use for flight planning or navigation.
Latest weather
Observation time Wednesday, December 2, 2020 11:15 PM EST
Local time Wednesday, December 2, 2020 11:23 PM EST
Flight conditions Visual Meteorological Conditions
Winds
Wind direction West (280°)
Wind speed 5 mph
Visibility 10 mi.
Sky condition
Ceiling unlimited
Sky clear
Temperature 37°F
Dewpoint 21°F
Altimeter 30.25 in.Hg
Derived measurements
Relative humidity 52%
Wind chill 34°F
Density altitude -1467 ft.
Remarks
Fully automated report.
Automated weather observing station with precipitation discriminator.
METAR KFDK 030415Z AUTO 28004KT 10SM CLR 03/M06 A3025 RMK AO2

Settings

Location code

InnerDrive.Weather 4.0.6770.0 Release CLR 4.0.30319.42000
Copyright ©2018 Inner Drive Technology. All rights reserved. Portions Copyright ©1986-2018 David Braverman.

Find weather

Site navigation


Skip Navigation Links

Place info

Page info

PayPal - The safer, easier way to pay online!

Return home.

Copyright ©2020 Inner Drive Technology. Purveyors of fine, hand-crafted computer software. Page printed 2020-12-03T04:23:33 UTC.